sensor_id;sensor_type;location;lat;lon;timestamp;temperature;humidity
50013;DHT22;35901;48.694;9.476;2023-12-20T00:00:17;5.20;99.90
50013;DHT22;35901;48.694;9.476;2023-12-20T00:02:43;5.10;99.90
50013;DHT22;35901;48.694;9.476;2023-12-20T00:05:13;5.10;99.90
50013;DHT22;35901;48.694;9.476;2023-12-20T00:07:39;5.10;99.90
50013;DHT22;35901;48.694;9.476;2023-12-20T00:10:05;5.20;99.90
50013;DHT22;35901;48.694;9.476;2023-12-20T00:12:30;5.20;99.90
50013;DHT22;35901;48.694;9.476;2023-12-20T00:14:56;5.20;99.90
50013;DHT22;35901;48.694;9.476;2023-12-20T00:17:22;5.30;99.90
50013;DHT22;35901;48.694;9.476;2023-12-20T00:23:09;5.30;99.90
50013;DHT22;35901;48.694;9.476;2023-12-20T00:25:35;5.50;99.90
50013;DHT22;35901;48.694;9.476;2023-12-20T00:28:01;5.60;99.90
50013;DHT22;35901;48.694;9.476;2023-12-20T00:30:28;5.60;99.90
50013;DHT22;35901;48.694;9.476;2023-12-20T00:32:53;5.70;99.90
50013;DHT22;35901;48.694;9.476;2023-12-20T00:35:19;5.70;99.90
50013;DHT22;35901;48.694;9.476;2023-12-20T00:37:45;5.80;99.90
50013;DHT22;35901;48.694;9.476;2023-12-20T00:40:11;5.80;99.90
50013;DHT22;35901;48.694;9.476;2023-12-20T00:42:37;5.90;99.90
50013;DHT22;35901;48.694;9.476;2023-12-20T00:45:03;5.80;99.90
50013;DHT22;35901;48.694;9.476;2023-12-20T00:47:30;5.80;99.90
50013;DHT22;35901;48.694;9.476;2023-12-20T00:49:56;5.70;99.90
50013;DHT22;35901;48.694;9.476;2023-12-20T00:52:25;5.70;99.90
50013;DHT22;35901;48.694;9.476;2023-12-20T00:54:51;5.70;99.90
50013;DHT22;35901;48.694;9.476;2023-12-20T00:57:17;5.70;99.90
50013;DHT22;35901;48.694;9.476;2023-12-20T00:59:43;5.70;99.90
50013;DHT22;35901;48.694;9.476;2023-12-20T01:02:08;5.60;99.90
50013;DHT22;35901;48.694;9.476;2023-12-20T01:04:35;5.60;99.90
50013;DHT22;35901;48.694;9.476;2023-12-20T01:07:01;5.60;99.90
50013;DHT22;35901;48.694;9.476;2023-12-20T01:09:26;5.60;99.90
50013;DHT22;35901;48.694;9.476;2023-12-20T01:11:55;5.50;99.90
50013;DHT22;35901;48.694;9.476;2023-12-20T01:14:21;5.50;99.90
50013;DHT22;35901;48.694;9.476;2023-12-20T01:16:47;5.30;99.90
50013;DHT22;35901;48.694;9.476;2023-12-20T01:19:12;5.20;99.90
50013;DHT22;35901;48.694;9.476;2023-12-20T01:28:47;5.10;99.90
50013;DHT22;35901;48.694;9.476;2023-12-20T01:31:13;5.00;99.90
50013;DHT22;35901;48.694;9.476;2023-12-20T01:33:38;4.90;99.90
50013;DHT22;35901;48.694;9.476;2023-12-20T01:36:04;4.80;99.90
50013;DHT22;35901;48.694;9.476;2023-12-20T01:38:30;4.70;99.90
50013;DHT22;35901;48.694;9.476;2023-12-20T01:40:55;4.70;99.90
50013;DHT22;35901;48.694;9.476;2023-12-20T01:43:21;4.70;99.90
50013;DHT22;35901;48.694;9.476;2023-12-20T01:45:47;4.70;99.90
50013;DHT22;35901;48.694;9.476;2023-12-20T01:48:15;4.60;99.90
50013;DHT22;35901;48.694;9.476;2023-12-20T01:50:41;4.60;99.90
50013;DHT22;35901;48.694;9.476;2023-12-20T01:53:09;4.60;99.90
50013;DHT22;35901;48.694;9.476;2023-12-20T01:55:39;4.50;99.90
50013;DHT22;35901;48.694;9.476;2023-12-20T01:58:09;4.50;99.90
50013;DHT22;35901;48.694;9.476;2023-12-20T02:00:36;4.50;99.90
50013;DHT22;35901;48.694;9.476;2023-12-20T02:03:02;4.50;99.90
50013;DHT22;35901;48.694;9.476;2023-12-20T02:05:30;4.50;99.90
50013;DHT22;35901;48.694;9.476;2023-12-20T02:07:56;4.60;99.90
50013;DHT22;35901;48.694;9.476;2023-12-20T02:10:21;4.60;99.90
50013;DHT22;35901;48.694;9.476;2023-12-20T02:12:47;4.70;99.90
50013;DHT22;35901;48.694;9.476;2023-12-20T02:15:13;4.80;99.90
50013;DHT22;35901;48.694;9.476;2023-12-20T02:17:39;4.80;99.90
50013;DHT22;35901;48.694;9.476;2023-12-20T02:20:06;4.80;99.90
50013;DHT22;35901;48.694;9.476;2023-12-20T02:22:32;4.80;99.90
50013;DHT22;35901;48.694;9.476;2023-12-20T02:24:57;4.80;99.90
50013;DHT22;35901;48.694;9.476;2023-12-20T02:27:23;4.80;99.90
50013;DHT22;35901;48.694;9.476;2023-12-20T02:29:50;4.80;99.90
50013;DHT22;35901;48.694;9.476;2023-12-20T02:32:17;4.80;99.90
50013;DHT22;35901;48.694;9.476;2023-12-20T02:34:43;4.80;99.90
50013;DHT22;35901;48.694;9.476;2023-12-20T02:37:09;4.80;99.90
50013;DHT22;35901;48.694;9.476;2023-12-20T02:39:34;4.80;99.90
50013;DHT22;35901;48.694;9.476;2023-12-20T02:42:00;4.80;99.90
50013;DHT22;35901;48.694;9.476;2023-12-20T02:44:26;4.80;99.90
50013;DHT22;35901;48.694;9.476;2023-12-20T02:46:51;4.70;99.90
50013;DHT22;35901;48.694;9.476;2023-12-20T02:49:17;4.80;99.90
50013;DHT22;35901;48.694;9.476;2023-12-20T02:51:43;4.80;99.90
50013;DHT22;35901;48.694;9.476;2023-12-20T02:54:09;4.70;99.90
50013;DHT22;35901;48.694;9.476;2023-12-20T02:56:34;4.80;99.90
50013;DHT22;35901;48.694;9.476;2023-12-20T02:59:00;4.70;99.90
50013;DHT22;35901;48.694;9.476;2023-12-20T03:01:26;4.70;99.90
50013;DHT22;35901;48.694;9.476;2023-12-20T03:03:52;4.70;99.90
50013;DHT22;35901;48.694;9.476;2023-12-20T03:06:18;4.70;99.90
50013;DHT22;35901;48.694;9.476;2023-12-20T03:08:44;4.70;99.90
50013;DHT22;35901;48.694;9.476;2023-12-20T03:11:10;4.60;99.90
50013;DHT22;35901;48.694;9.476;2023-12-20T03:13:36;4.60;99.90
50013;DHT22;35901;48.694;9.476;2023-12-20T03:16:08;4.60;99.90
50013;DHT22;35901;48.694;9.476;2023-12-20T03:18:34;4.50;99.90
50013;DHT22;35901;48.694;9.476;2023-12-20T03:21:00;4.50;99.90
50013;DHT22;35901;48.694;9.476;2023-12-20T03:23:25;4.50;99.90
50013;DHT22;35901;48.694;9.476;2023-12-20T03:25:52;4.50;99.90
50013;DHT22;35901;48.694;9.476;2023-12-20T03:28:18;4.50;99.90
50013;DHT22;35901;48.694;9.476;2023-12-20T03:30:44;4.50;99.90
50013;DHT22;35901;48.694;9.476;2023-12-20T03:33:10;4.50;99.90
50013;DHT22;35901;48.694;9.476;2023-12-20T03:35:36;4.50;99.90
50013;DHT22;35901;48.694;9.476;2023-12-20T03:38:01;4.40;99.90
50013;DHT22;35901;48.694;9.476;2023-12-20T03:40:27;4.40;99.90
50013;DHT22;35901;48.694;9.476;2023-12-20T03:42:53;4.40;99.90
50013;DHT22;35901;48.694;9.476;2023-12-20T03:45:18;4.40;99.90
50013;DHT22;35901;48.694;9.476;2023-12-20T03:47:44;4.40;99.90
50013;DHT22;35901;48.694;9.476;2023-12-20T03:50:09;4.40;99.90
50013;DHT22;35901;48.694;9.476;2023-12-20T03:52:35;4.40;99.90
50013;DHT22;35901;48.694;9.476;2023-12-20T03:55:00;4.40;99.90
50013;DHT22;35901;48.694;9.476;2023-12-20T03:57:26;4.40;99.90
50013;DHT22;35901;48.694;9.476;2023-12-20T03:59:52;4.40;99.90
50013;DHT22;35901;48.694;9.476;2023-12-20T04:02:17;4.40;99.90
50013;DHT22;35901;48.694;9.476;2023-12-20T04:04:43;4.40;99.90
50013;DHT22;35901;48.694;9.476;2023-12-20T04:07:09;4.40;99.90
50013;DHT22;35901;48.694;9.476;2023-12-20T04:09:35;4.40;99.90
50013;DHT22;35901;48.694;9.476;2023-12-20T04:12:00;4.40;99.90
50013;DHT22;35901;48.694;9.476;2023-12-20T04:14:26;4.40;99.90
50013;DHT22;35901;48.694;9.476;2023-12-20T04:16:52;4.40;99.90
50013;DHT22;35901;48.694;9.476;2023-12-20T04:19:18;4.40;99.90
50013;DHT22;35901;48.694;9.476;2023-12-20T04:21:43;4.40;99.90
50013;DHT22;35901;48.694;9.476;2023-12-20T04:24:09;4.40;99.90
50013;DHT22;35901;48.694;9.476;2023-12-20T04:26:34;4.40;99.90
50013;DHT22;35901;48.694;9.476;2023-12-20T04:29:00;4.50;99.90
50013;DHT22;35901;48.694;9.476;2023-12-20T04:31:26;4.50;99.90
50013;DHT22;35901;48.694;9.476;2023-12-20T04:33:51;4.50;99.90
50013;DHT22;35901;48.694;9.476;2023-12-20T04:36:17;4.50;99.90
50013;DHT22;35901;48.694;9.476;2023-12-20T04:38:42;4.50;99.90
50013;DHT22;35901;48.694;9.476;2023-12-20T04:41:08;4.50;99.90
50013;DHT22;35901;48.694;9.476;2023-12-20T04:43:34;4.40;99.90
50013;DHT22;35901;48.694;9.476;2023-12-20T04:45:59;4.40;99.90
50013;DHT22;35901;48.694;9.476;2023-12-20T04:48:25;4.40;99.90
50013;DHT22;35901;48.694;9.476;2023-12-20T04:50:50;4.40;99.90
50013;DHT22;35901;48.694;9.476;2023-12-20T04:53:16;4.40;99.90
50013;DHT22;35901;48.694;9.476;2023-12-20T04:55:42;4.40;99.90
50013;DHT22;35901;48.694;9.476;2023-12-20T04:58:07;4.40;99.90
50013;DHT22;35901;48.694;9.476;2023-12-20T05:00:33;4.40;99.90
50013;DHT22;35901;48.694;9.476;2023-12-20T05:02:58;4.40;99.90
50013;DHT22;35901;48.694;9.476;2023-12-20T05:05:24;4.40;99.90
50013;DHT22;35901;48.694;9.476;2023-12-20T05:07:50;4.40;99.90
50013;DHT22;35901;48.694;9.476;2023-12-20T05:10:15;4.40;99.90
50013;DHT22;35901;48.694;9.476;2023-12-20T05:12:41;4.40;99.90
50013;DHT22;35901;48.694;9.476;2023-12-20T05:15:07;4.40;99.90
50013;DHT22;35901;48.694;9.476;2023-12-20T05:17:33;4.30;99.90
50013;DHT22;35901;48.694;9.476;2023-12-20T05:19:59;4.30;99.90
50013;DHT22;35901;48.694;9.476;2023-12-20T05:22:24;4.30;99.90
50013;DHT22;35901;48.694;9.476;2023-12-20T05:24:50;4.30;99.90
50013;DHT22;35901;48.694;9.476;2023-12-20T05:27:16;4.30;99.90
50013;DHT22;35901;48.694;9.476;2023-12-20T05:29:41;4.30;99.90
50013;DHT22;35901;48.694;9.476;2023-12-20T05:32:07;4.30;99.90
50013;DHT22;35901;48.694;9.476;2023-12-20T05:34:32;4.30;99.90
50013;DHT22;35901;48.694;9.476;2023-12-20T05:36:58;4.30;99.90
50013;DHT22;35901;48.694;9.476;2023-12-20T05:39:24;4.30;99.90
50013;DHT22;35901;48.694;9.476;2023-12-20T05:41:49;4.30;99.90
50013;DHT22;35901;48.694;9.476;2023-12-20T05:44:15;4.30;99.90
50013;DHT22;35901;48.694;9.476;2023-12-20T05:46:40;4.30;99.90
50013;DHT22;35901;48.694;9.476;2023-12-20T05:49:06;4.30;99.90
50013;DHT22;35901;48.694;9.476;2023-12-20T05:51:32;4.20;99.90
50013;DHT22;35901;48.694;9.476;2023-12-20T05:53:58;4.30;99.90
50013;DHT22;35901;48.694;9.476;2023-12-20T05:56:24;4.20;99.90
50013;DHT22;35901;48.694;9.476;2023-12-20T05:58:49;4.20;99.90
50013;DHT22;35901;48.694;9.476;2023-12-20T06:01:15;4.20;99.90
50013;DHT22;35901;48.694;9.476;2023-12-20T06:03:43;4.20;99.90
50013;DHT22;35901;48.694;9.476;2023-12-20T06:06:09;4.20;99.90
50013;DHT22;35901;48.694;9.476;2023-12-20T06:08:36;4.20;99.90
50013;DHT22;35901;48.694;9.476;2023-12-20T06:11:01;4.20;99.90
50013;DHT22;35901;48.694;9.476;2023-12-20T06:13:27;4.20;99.90
50013;DHT22;35901;48.694;9.476;2023-12-20T06:15:54;4.20;99.90
50013;DHT22;35901;48.694;9.476;2023-12-20T06:18:20;4.20;99.90
50013;DHT22;35901;48.694;9.476;2023-12-20T06:20:46;4.10;99.90
50013;DHT22;35901;48.694;9.476;2023-12-20T06:23:11;4.20;99.90
50013;DHT22;35901;48.694;9.476;2023-12-20T06:25:37;4.20;99.90
50013;DHT22;35901;48.694;9.476;2023-12-20T06:28:02;4.10;99.90
50013;DHT22;35901;48.694;9.476;2023-12-20T06:30:28;4.10;99.90
50013;DHT22;35901;48.694;9.476;2023-12-20T06:32:54;4.10;99.90
50013;DHT22;35901;48.694;9.476;2023-12-20T06:35:20;4.10;99.90
50013;DHT22;35901;48.694;9.476;2023-12-20T06:37:46;4.10;99.90
50013;DHT22;35901;48.694;9.476;2023-12-20T06:40:11;4.10;99.90
50013;DHT22;35901;48.694;9.476;2023-12-20T06:42:37;4.10;99.90
50013;DHT22;35901;48.694;9.476;2023-12-20T06:45:03;4.10;99.90
50013;DHT22;35901;48.694;9.476;2023-12-20T06:47:29;4.10;99.90
50013;DHT22;35901;48.694;9.476;2023-12-20T06:49:55;4.10;99.90
50013;DHT22;35901;48.694;9.476;2023-12-20T06:52:20;4.10;99.90
50013;DHT22;35901;48.694;9.476;2023-12-20T06:54:46;4.10;99.90
50013;DHT22;35901;48.694;9.476;2023-12-20T06:57:11;4.10;99.90
50013;DHT22;35901;48.694;9.476;2023-12-20T06:59:41;4.10;99.90
50013;DHT22;35901;48.694;9.476;2023-12-20T07:02:06;4.10;99.90
50013;DHT22;35901;48.694;9.476;2023-12-20T07:04:33;4.10;99.90
50013;DHT22;35901;48.694;9.476;2023-12-20T07:06:59;4.10;99.90
50013;DHT22;35901;48.694;9.476;2023-12-20T07:09:28;4.10;99.90
50013;DHT22;35901;48.694;9.476;2023-12-20T07:11:54;4.10;99.90
50013;DHT22;35901;48.694;9.476;2023-12-20T07:14:19;4.20;99.90
50013;DHT22;35901;48.694;9.476;2023-12-20T07:16:45;4.10;99.90
50013;DHT22;35901;48.694;9.476;2023-12-20T07:19:11;4.10;99.90
50013;DHT22;35901;48.694;9.476;2023-12-20T07:21:36;4.10;99.90
50013;DHT22;35901;48.694;9.476;2023-12-20T07:24:02;4.10;99.90
50013;DHT22;35901;48.694;9.476;2023-12-20T07:26:28;4.10;99.90
50013;DHT22;35901;48.694;9.476;2023-12-20T07:28:53;4.10;99.90
50013;DHT22;35901;48.694;9.476;2023-12-20T07:31:19;4.10;99.90
50013;DHT22;35901;48.694;9.476;2023-12-20T07:33:44;4.10;99.90
50013;DHT22;35901;48.694;9.476;2023-12-20T07:36:10;4.10;99.90
50013;DHT22;35901;48.694;9.476;2023-12-20T07:38:37;4.10;99.90
50013;DHT22;35901;48.694;9.476;2023-12-20T07:41:02;4.00;99.90
50013;DHT22;35901;48.694;9.476;2023-12-20T07:43:28;4.00;99.90
50013;DHT22;35901;48.694;9.476;2023-12-20T07:45:54;4.00;99.90
50013;DHT22;35901;48.694;9.476;2023-12-20T07:48:19;4.00;99.90
50013;DHT22;35901;48.694;9.476;2023-12-20T07:50:45;4.00;99.90
50013;DHT22;35901;48.694;9.476;2023-12-20T07:53:10;4.00;99.90
50013;DHT22;35901;48.694;9.476;2023-12-20T07:55:36;4.00;99.90
50013;DHT22;35901;48.694;9.476;2023-12-20T07:58:02;4.00;99.90
50013;DHT22;35901;48.694;9.476;2023-12-20T08:00:27;4.10;99.90
50013;DHT22;35901;48.694;9.476;2023-12-20T08:02:53;4.10;99.90
50013;DHT22;35901;48.694;9.476;2023-12-20T08:05:19;4.10;99.90
50013;DHT22;35901;48.694;9.476;2023-12-20T08:07:44;4.10;99.90
50013;DHT22;35901;48.694;9.476;2023-12-20T08:10:10;4.10;99.90
50013;DHT22;35901;48.694;9.476;2023-12-20T08:12:36;4.10;99.90
50013;DHT22;35901;48.694;9.476;2023-12-20T08:15:02;4.20;99.90
50013;DHT22;35901;48.694;9.476;2023-12-20T08:17:29;4.20;99.90
50013;DHT22;35901;48.694;9.476;2023-12-20T08:19:54;4.20;99.90
50013;DHT22;35901;48.694;9.476;2023-12-20T08:22:20;4.20;99.90
50013;DHT22;35901;48.694;9.476;2023-12-20T08:24:46;4.20;99.90
50013;DHT22;35901;48.694;9.476;2023-12-20T08:27:11;4.20;99.90
50013;DHT22;35901;48.694;9.476;2023-12-20T08:29:37;4.20;99.90
50013;DHT22;35901;48.694;9.476;2023-12-20T08:32:03;4.20;99.90
50013;DHT22;35901;48.694;9.476;2023-12-20T08:34:29;4.20;99.90
50013;DHT22;35901;48.694;9.476;2023-12-20T08:36:54;4.20;99.90
50013;DHT22;35901;48.694;9.476;2023-12-20T08:39:20;4.30;99.90
50013;DHT22;35901;48.694;9.476;2023-12-20T08:41:46;4.30;99.90
50013;DHT22;35901;48.694;9.476;2023-12-20T08:44:11;4.30;99.90
50013;DHT22;35901;48.694;9.476;2023-12-20T08:46:37;4.30;99.90
50013;DHT22;35901;48.694;9.476;2023-12-20T08:49:03;4.30;99.90
50013;DHT22;35901;48.694;9.476;2023-12-20T08:51:28;4.40;99.90
50013;DHT22;35901;48.694;9.476;2023-12-20T08:53:54;4.40;99.90
50013;DHT22;35901;48.694;9.476;2023-12-20T08:56:20;4.50;99.90
50013;DHT22;35901;48.694;9.476;2023-12-20T08:58:46;4.60;99.90
50013;DHT22;35901;48.694;9.476;2023-12-20T09:01:13;4.60;99.90
50013;DHT22;35901;48.694;9.476;2023-12-20T09:03:39;4.50;99.90
50013;DHT22;35901;48.694;9.476;2023-12-20T09:06:05;4.50;99.90
50013;DHT22;35901;48.694;9.476;2023-12-20T09:08:31;4.50;99.90
50013;DHT22;35901;48.694;9.476;2023-12-20T09:10:56;4.50;99.90
50013;DHT22;35901;48.694;9.476;2023-12-20T09:13:22;4.50;99.90
50013;DHT22;35901;48.694;9.476;2023-12-20T09:15:56;4.40;99.90
50013;DHT22;35901;48.694;9.476;2023-12-20T09:18:22;4.30;99.90
50013;DHT22;35901;48.694;9.476;2023-12-20T09:20:47;4.30;99.90
50013;DHT22;35901;48.694;9.476;2023-12-20T09:23:13;4.30;99.90
50013;DHT22;35901;48.694;9.476;2023-12-20T09:25:38;4.30;99.90
50013;DHT22;35901;48.694;9.476;2023-12-20T09:28:04;4.30;99.90
50013;DHT22;35901;48.694;9.476;2023-12-20T09:30:30;4.30;99.90
50013;DHT22;35901;48.694;9.476;2023-12-20T09:32:57;4.30;99.90
50013;DHT22;35901;48.694;9.476;2023-12-20T09:35:24;4.30;99.90
50013;DHT22;35901;48.694;9.476;2023-12-20T09:37:49;4.30;99.90
50013;DHT22;35901;48.694;9.476;2023-12-20T09:40:18;4.30;99.90
50013;DHT22;35901;48.694;9.476;2023-12-20T09:43:04;4.40;99.90
50013;DHT22;35901;48.694;9.476;2023-12-20T09:45:31;4.40;99.90
50013;DHT22;35901;48.694;9.476;2023-12-20T09:47:58;4.40;99.90
50013;DHT22;35901;48.694;9.476;2023-12-20T09:50:24;4.40;99.90
50013;DHT22;35901;48.694;9.476;2023-12-20T09:52:51;4.40;99.90
50013;DHT22;35901;48.694;9.476;2023-12-20T09:55:21;4.40;99.90
50013;DHT22;35901;48.694;9.476;2023-12-20T09:57:47;4.40;99.90
50013;DHT22;35901;48.694;9.476;2023-12-20T10:00:15;4.30;99.90
50013;DHT22;35901;48.694;9.476;2023-12-20T10:02:56;4.30;99.90
50013;DHT22;35901;48.694;9.476;2023-12-20T10:05:30;4.30;99.90
50013;DHT22;35901;48.694;9.476;2023-12-20T10:07:57;4.40;99.90
50013;DHT22;35901;48.694;9.476;2023-12-20T10:10:23;4.50;99.90
50013;DHT22;35901;48.694;9.476;2023-12-20T10:13:05;4.50;99.90
50013;DHT22;35901;48.694;9.476;2023-12-20T10:15:35;4.40;99.90
50013;DHT22;35901;48.694;9.476;2023-12-20T10:18:02;4.40;99.90
50013;DHT22;35901;48.694;9.476;2023-12-20T10:20:28;4.30;99.90
50013;DHT22;35901;48.694;9.476;2023-12-20T10:22:58;4.30;99.90
50013;DHT22;35901;48.694;9.476;2023-12-20T10:25:24;4.20;99.90
50013;DHT22;35901;48.694;9.476;2023-12-20T10:30:34;4.20;99.90
50013;DHT22;35901;48.694;9.476;2023-12-20T10:33:00;4.40;99.90
50013;DHT22;35901;48.694;9.476;2023-12-20T10:35:25;4.60;99.90
50013;DHT22;35901;48.694;9.476;2023-12-20T10:37:55;5.00;99.90
50013;DHT22;35901;48.694;9.476;2023-12-20T10:40:22;5.00;99.90
50013;DHT22;35901;48.694;9.476;2023-12-20T10:42:48;4.90;99.90
50013;DHT22;35901;48.694;9.476;2023-12-20T10:45:15;4.80;99.90
50013;DHT22;35901;48.694;9.476;2023-12-20T10:47:44;4.80;99.90
50013;DHT22;35901;48.694;9.476;2023-12-20T10:50:11;4.80;99.90
50013;DHT22;35901;48.694;9.476;2023-12-20T10:52:37;4.90;99.90
50013;DHT22;35901;48.694;9.476;2023-12-20T10:55:04;4.90;99.90
50013;DHT22;35901;48.694;9.476;2023-12-20T10:57:30;4.90;99.90
50013;DHT22;35901;48.694;9.476;2023-12-20T11:00:01;5.00;99.90
50013;DHT22;35901;48.694;9.476;2023-12-20T11:02:32;5.00;99.90
50013;DHT22;35901;48.694;9.476;2023-12-20T11:05:10;5.10;99.90
50013;DHT22;35901;48.694;9.476;2023-12-20T11:07:46;5.20;99.90
50013;DHT22;35901;48.694;9.476;2023-12-20T11:10:23;5.20;99.90
50013;DHT22;35901;48.694;9.476;2023-12-20T11:13:14;5.10;99.90
50013;DHT22;35901;48.694;9.476;2023-12-20T11:15:42;5.20;99.90
50013;DHT22;35901;48.694;9.476;2023-12-20T11:18:09;5.20;99.90
50013;DHT22;35901;48.694;9.476;2023-12-20T11:20:39;5.20;99.90
50013;DHT22;35901;48.694;9.476;2023-12-20T11:23:06;5.30;99.90
50013;DHT22;35901;48.694;9.476;2023-12-20T11:25:54;5.40;99.90
50013;DHT22;35901;48.694;9.476;2023-12-20T11:28:25;5.40;99.90
50013;DHT22;35901;48.694;9.476;2023-12-20T11:30:55;5.50;99.90
50013;DHT22;35901;48.694;9.476;2023-12-20T11:33:25;5.40;99.90
50013;DHT22;35901;48.694;9.476;2023-12-20T11:35:51;5.40;99.90
50013;DHT22;35901;48.694;9.476;2023-12-20T11:38:19;5.30;99.90
50013;DHT22;35901;48.694;9.476;2023-12-20T11:40:48;5.30;99.90
50013;DHT22;35901;48.694;9.476;2023-12-20T11:43:30;5.40;99.90
50013;DHT22;35901;48.694;9.476;2023-12-20T11:46:06;5.40;99.90
50013;DHT22;35901;48.694;9.476;2023-12-20T11:48:34;5.40;99.90
50013;DHT22;35901;48.694;9.476;2023-12-20T11:51:00;5.40;99.90
50013;DHT22;35901;48.694;9.476;2023-12-20T11:53:26;5.30;99.90
50013;DHT22;35901;48.694;9.476;2023-12-20T11:55:52;5.30;99.90
50013;DHT22;35901;48.694;9.476;2023-12-20T11:58:19;5.30;99.90
50013;DHT22;35901;48.694;9.476;2023-12-20T12:00:45;5.20;99.90
50013;DHT22;35901;48.694;9.476;2023-12-20T12:03:14;5.20;99.90
50013;DHT22;35901;48.694;9.476;2023-12-20T12:05:40;5.20;99.90
50013;DHT22;35901;48.694;9.476;2023-12-20T12:08:06;5.20;99.90
50013;DHT22;35901;48.694;9.476;2023-12-20T12:10:33;5.20;99.90
50013;DHT22;35901;48.694;9.476;2023-12-20T12:12:59;5.20;99.90
50013;DHT22;35901;48.694;9.476;2023-12-20T12:15:26;5.20;99.90
50013;DHT22;35901;48.694;9.476;2023-12-20T12:17:56;5.20;99.90
50013;DHT22;35901;48.694;9.476;2023-12-20T12:20:23;5.20;99.90
50013;DHT22;35901;48.694;9.476;2023-12-20T12:25:29;5.20;99.90
50013;DHT22;35901;48.694;9.476;2023-12-20T12:27:56;5.20;99.90
50013;DHT22;35901;48.694;9.476;2023-12-20T12:30:23;5.20;99.90
50013;DHT22;35901;48.694;9.476;2023-12-20T12:32:48;5.20;99.90
50013;DHT22;35901;48.694;9.476;2023-12-20T12:35:14;5.20;99.90
50013;DHT22;35901;48.694;9.476;2023-12-20T12:37:41;5.20;99.90
50013;DHT22;35901;48.694;9.476;2023-12-20T12:40:11;5.20;99.90
50013;DHT22;35901;48.694;9.476;2023-12-20T12:42:40;5.20;99.90
50013;DHT22;35901;48.694;9.476;2023-12-20T12:45:15;5.20;99.90
50013;DHT22;35901;48.694;9.476;2023-12-20T12:47:41;5.00;99.90
50013;DHT22;35901;48.694;9.476;2023-12-20T12:50:07;4.80;99.90
50013;DHT22;35901;48.694;9.476;2023-12-20T12:52:32;4.80;99.90
50013;DHT22;35901;48.694;9.476;2023-12-20T12:54:58;4.70;99.90
50013;DHT22;35901;48.694;9.476;2023-12-20T12:57:24;4.70;99.90
50013;DHT22;35901;48.694;9.476;2023-12-20T12:59:50;4.80;99.90
50013;DHT22;35901;48.694;9.476;2023-12-20T13:02:15;4.90;99.90
50013;DHT22;35901;48.694;9.476;2023-12-20T13:04:41;4.90;99.90
50013;DHT22;35901;48.694;9.476;2023-12-20T13:07:08;5.00;99.90
50013;DHT22;35901;48.694;9.476;2023-12-20T13:09:36;5.00;99.90
50013;DHT22;35901;48.694;9.476;2023-12-20T13:12:02;5.10;99.90
50013;DHT22;35901;48.694;9.476;2023-12-20T13:14:31;5.10;99.90
50013;DHT22;35901;48.694;9.476;2023-12-20T13:16:57;5.20;99.90
50013;DHT22;35901;48.694;9.476;2023-12-20T13:19:23;5.20;99.90
50013;DHT22;35901;48.694;9.476;2023-12-20T13:21:49;5.20;99.90
50013;DHT22;35901;48.694;9.476;2023-12-20T13:24:14;5.20;99.90
50013;DHT22;35901;48.694;9.476;2023-12-20T13:26:40;5.20;99.90
50013;DHT22;35901;48.694;9.476;2023-12-20T13:29:05;5.20;99.90
50013;DHT22;35901;48.694;9.476;2023-12-20T13:31:31;5.10;99.90
50013;DHT22;35901;48.694;9.476;2023-12-20T13:33:57;5.10;99.90
50013;DHT22;35901;48.694;9.476;2023-12-20T13:36:22;5.10;99.90
50013;DHT22;35901;48.694;9.476;2023-12-20T13:38:48;5.10;99.90
50013;DHT22;35901;48.694;9.476;2023-12-20T13:41:14;5.10;99.90
50013;DHT22;35901;48.694;9.476;2023-12-20T13:43:39;5.10;99.90
50013;DHT22;35901;48.694;9.476;2023-12-20T13:46:05;5.10;99.90
50013;DHT22;35901;48.694;9.476;2023-12-20T13:48:31;5.10;99.90
50013;DHT22;35901;48.694;9.476;2023-12-20T13:50:56;5.00;99.90
50013;DHT22;35901;48.694;9.476;2023-12-20T13:53:22;5.00;99.90
50013;DHT22;35901;48.694;9.476;2023-12-20T13:55:47;5.00;99.90
50013;DHT22;35901;48.694;9.476;2023-12-20T13:58:13;5.00;99.90
50013;DHT22;35901;48.694;9.476;2023-12-20T14:00:40;5.10;99.90
50013;DHT22;35901;48.694;9.476;2023-12-20T14:03:05;5.10;99.90
50013;DHT22;35901;48.694;9.476;2023-12-20T14:05:31;5.10;99.90
50013;DHT22;35901;48.694;9.476;2023-12-20T14:07:57;5.00;99.90
50013;DHT22;35901;48.694;9.476;2023-12-20T14:10:23;5.00;99.90
50013;DHT22;35901;48.694;9.476;2023-12-20T14:12:49;4.90;99.90
50013;DHT22;35901;48.694;9.476;2023-12-20T14:15:14;4.90;99.90
50013;DHT22;35901;48.694;9.476;2023-12-20T14:17:41;4.90;99.90
50013;DHT22;35901;48.694;9.476;2023-12-20T14:20:10;4.90;99.90
50013;DHT22;35901;48.694;9.476;2023-12-20T14:22:38;4.90;99.90
50013;DHT22;35901;48.694;9.476;2023-12-20T14:25:04;4.90;99.90
50013;DHT22;35901;48.694;9.476;2023-12-20T14:27:31;4.80;99.90
50013;DHT22;35901;48.694;9.476;2023-12-20T14:29:57;4.80;99.90
50013;DHT22;35901;48.694;9.476;2023-12-20T14:32:24;4.80;99.90
50013;DHT22;35901;48.694;9.476;2023-12-20T14:34:52;4.80;99.90
50013;DHT22;35901;48.694;9.476;2023-12-20T14:37:17;4.80;99.90
50013;DHT22;35901;48.694;9.476;2023-12-20T14:39:43;4.80;99.90
50013;DHT22;35901;48.694;9.476;2023-12-20T14:42:08;4.80;99.90
50013;DHT22;35901;48.694;9.476;2023-12-20T14:44:43;4.80;99.90
50013;DHT22;35901;48.694;9.476;2023-12-20T14:47:09;4.80;99.90
50013;DHT22;35901;48.694;9.476;2023-12-20T14:49:35;4.80;99.90
50013;DHT22;35901;48.694;9.476;2023-12-20T14:52:01;4.80;99.90
50013;DHT22;35901;48.694;9.476;2023-12-20T14:54:27;4.80;99.90
50013;DHT22;35901;48.694;9.476;2023-12-20T14:56:53;4.80;99.90
50013;DHT22;35901;48.694;9.476;2023-12-20T14:59:18;4.80;99.90
50013;DHT22;35901;48.694;9.476;2023-12-20T15:01:44;4.90;99.90
50013;DHT22;35901;48.694;9.476;2023-12-20T15:04:10;4.90;99.90
50013;DHT22;35901;48.694;9.476;2023-12-20T15:06:36;4.90;99.90
50013;DHT22;35901;48.694;9.476;2023-12-20T15:09:02;5.00;99.90
50013;DHT22;35901;48.694;9.476;2023-12-20T15:11:33;4.90;99.90
50013;DHT22;35901;48.694;9.476;2023-12-20T15:14:02;4.90;99.90
50013;DHT22;35901;48.694;9.476;2023-12-20T15:16:28;4.90;99.90
50013;DHT22;35901;48.694;9.476;2023-12-20T15:18:54;4.80;99.90
50013;DHT22;35901;48.694;9.476;2023-12-20T15:21:20;4.80;99.90
50013;DHT22;35901;48.694;9.476;2023-12-20T15:23:46;4.80;99.90
50013;DHT22;35901;48.694;9.476;2023-12-20T15:26:19;4.70;99.90
50013;DHT22;35901;48.694;9.476;2023-12-20T15:28:45;4.70;99.90
50013;DHT22;35901;48.694;9.476;2023-12-20T15:31:10;4.60;99.90
50013;DHT22;35901;48.694;9.476;2023-12-20T15:33:36;4.70;99.90
50013;DHT22;35901;48.694;9.476;2023-12-20T15:36:02;4.60;99.90
50013;DHT22;35901;48.694;9.476;2023-12-20T15:38:28;4.60;99.90
50013;DHT22;35901;48.694;9.476;2023-12-20T15:40:54;4.70;99.90
50013;DHT22;35901;48.694;9.476;2023-12-20T15:43:19;4.60;99.90
50013;DHT22;35901;48.694;9.476;2023-12-20T15:45:45;4.50;99.90
50013;DHT22;35901;48.694;9.476;2023-12-20T15:48:11;4.50;99.90
50013;DHT22;35901;48.694;9.476;2023-12-20T15:50:43;4.40;99.90
50013;DHT22;35901;48.694;9.476;2023-12-20T15:53:09;4.40;99.90
50013;DHT22;35901;48.694;9.476;2023-12-20T15:55:35;4.40;99.90